Joliet, IL (60436)

1:45 PM CDT on October 31, 2014 (GMT -0500)
JolietWeather.com | Change Station
CLOSE
Current Station
Personal Weather Station
Location: Joliet, IL
Elevation: 581 ft
Nearby Weather Stations
Active Advisory: Wind Advisory Active Notice: Public Information Statement

Elev 581 ft 41.50 °N, 88.16 °W | Updated 14 minutes ago

Overcast
Overcast
42.8 °F
Feels Like 36 °F
N
13.0
Wind Variable Wind from NNW
Gusts 21.0 mph

Today
High -- | Low -- °F
--% Chance of Precip.
Yesterday
High -- | Low -- °F
Precip. -- in
7:23 AM 5:48 PM
First Quarter, 58% visible
Pressure 30.18 in
Visibility 10.0 miles
Clouds Overcast 4600 ft
Windchill 36 °F
Dew Point 26 °F
Humidity 51%
Rainfall 0.00 in
Snow Depth Not available.
UV 0.0 out of 12
Pollen .60 out of 12
Air Quality Not available.
Flu Activity Not available.
METAR KJOT 311835Z AUTO 35016G32KT 10SM OVC046 05/M05 A3018 RMK AO2 T00481049

More Conditions Fewer Conditions

Pressure 30.18 in
Visibility 10.0 miles
Clouds Overcast 4600 ft
Windchill 36 °F
Dew Point 26 °F
Humidity 51%
Rainfall 0.00 in
Snow Depth Not available.
UV 0.0 out of 12
Pollen .60 out of 12
Air Quality Not available.
Flu Activity Not available.
METAR KJOT 311835Z AUTO 35016G32KT 10SM OVC046 05/M05 A3018 RMK AO2 T00481049

More Conditions Fewer Conditions

10-Day Weather Forecast

Almanac

Astronomy

Oct. 31, 2014 Rise Set
Actual Time
Civil Twilight
Nautical Twilight
Astronomical Twilight
Moon
Length of Visible Light
Length of Day
Tomorrow will be .
, % of the Moon is Illuminated

Today's Extremes

State Highs State Lows

Community

WunderPhotos

Upload Photos

1,766,690 photos uploaded!

WunderBlogs® & News

Nearby

Air Quality

  Air Quality AQ Index Pollutant
Not available.

Snow Depth

Station Depth Elevation

Earthquake Activity

City Distance Mag. Time & Date
Minimum magnitude displayed is 2.5.

Coastal Water Temperatures

Place Temperature

Nearby Weather Stations